Terminal Aerodrome Forecast
Issued by NWS Wilmington, NC

Home | Current Version | Previous Version | Text Only | Print | Product List | Glossary On
Versions: 1 2 3 4 5 6 7 8 9 10 11 12 13 14 15 16 17 18 19 20 21 22 23 24
535
FTUS42 KILM 251143 CCA
TAFFLO
TAF COR
KFLO 251143Z 2512/2612 00000KT 6SM BR SCT040
      TEMPO 2512/2513 3SM BR BKN006
     FM251300 08006KT P6SM VCSH BKN020 BKN050
     FM260100 07005KT P6SM SCT010 BKN025=

USA.gov is the U.S. government's official web portal to all federal, state and local government web resources and services.